sensor_id;sensor_type;location;lat;lon;timestamp;temperature;humidity
72772;SHT30;60894;42.544;1.516;2023-05-10T00:02:02;8.37;77.90
72772;SHT30;60894;42.544;1.516;2023-05-10T00:04:29;8.26;79.06
72772;SHT30;60894;42.544;1.516;2023-05-10T00:06:56;8.19;79.11
72772;SHT30;60894;42.544;1.516;2023-05-10T00:09:23;8.22;79.75
72772;SHT30;60894;42.544;1.516;2023-05-10T00:11:51;8.16;79.86
72772;SHT30;60894;42.544;1.516;2023-05-10T00:14:18;8.14;79.67
72772;SHT30;60894;42.544;1.516;2023-05-10T00:16:45;8.03;79.90
72772;SHT30;60894;42.544;1.516;2023-05-10T00:19:12;8.02;79.53
72772;SHT30;60894;42.544;1.516;2023-05-10T00:21:39;7.91;79.86
72772;SHT30;60894;42.544;1.516;2023-05-10T00:24:06;7.79;79.22
72772;SHT30;60894;42.544;1.516;2023-05-10T00:26:33;7.85;79.06
72772;SHT30;60894;42.544;1.516;2023-05-10T00:29:02;7.85;78.90
72772;SHT30;60894;42.544;1.516;2023-05-10T00:31:28;7.65;78.58
72772;SHT30;60894;42.544;1.516;2023-05-10T00:33:55;7.72;78.37
72772;SHT30;60894;42.544;1.516;2023-05-10T00:36:22;7.72;78.44
72772;SHT30;60894;42.544;1.516;2023-05-10T00:38:49;7.71;78.35
72772;SHT30;60894;42.544;1.516;2023-05-10T00:41:16;7.57;78.82
72772;SHT30;60894;42.544;1.516;2023-05-10T00:43:43;7.61;78.79
72772;SHT30;60894;42.544;1.516;2023-05-10T00:46:12;7.54;78.49
72772;SHT30;60894;42.544;1.516;2023-05-10T00:48:40;7.47;78.94
72772;SHT30;60894;42.544;1.516;2023-05-10T00:51:07;7.40;79.07
72772;SHT30;60894;42.544;1.516;2023-05-10T00:53:34;7.35;79.00
72772;SHT30;60894;42.544;1.516;2023-05-10T00:56:02;7.27;79.13
72772;SHT30;60894;42.544;1.516;2023-05-10T00:58:29;7.30;78.73
72772;SHT30;60894;42.544;1.516;2023-05-10T01:00:57;7.32;79.05
72772;SHT30;60894;42.544;1.516;2023-05-10T01:03:25;7.30;79.31
72772;SHT30;60894;42.544;1.516;2023-05-10T01:05:52;7.24;78.93
72772;SHT30;60894;42.544;1.516;2023-05-10T01:08:20;7.11;79.34
72772;SHT30;60894;42.544;1.516;2023-05-10T01:10:47;7.17;79.46
72772;SHT30;60894;42.544;1.516;2023-05-10T01:13:19;7.07;79.04
72772;SHT30;60894;42.544;1.516;2023-05-10T01:15:49;7.00;78.99
72772;SHT30;60894;42.544;1.516;2023-05-10T01:18:20;7.07;79.28
72772;SHT30;60894;42.544;1.516;2023-05-10T01:20:56;7.16;79.27
72772;SHT30;60894;42.544;1.516;2023-05-10T01:23:39;7.13;78.75
72772;SHT30;60894;42.544;1.516;2023-05-10T01:26:39;6.96;78.68
72772;SHT30;60894;42.544;1.516;2023-05-10T01:32:32;6.88;78.34
72772;SHT30;60894;42.544;1.516;2023-05-10T01:35:04;6.86;78.74
72772;SHT30;60894;42.544;1.516;2023-05-10T01:37:51;6.92;78.83
72772;SHT30;60894;42.544;1.516;2023-05-10T01:40:25;6.96;78.49
72772;SHT30;60894;42.544;1.516;2023-05-10T01:42:56;6.75;79.36
72772;SHT30;60894;42.544;1.516;2023-05-10T01:45:30;6.68;79.40
72772;SHT30;60894;42.544;1.516;2023-05-10T01:48:09;6.59;79.32
72772;SHT30;60894;42.544;1.516;2023-05-10T01:50:41;6.52;79.03
72772;SHT30;60894;42.544;1.516;2023-05-10T01:53:10;6.49;79.56
72772;SHT30;60894;42.544;1.516;2023-05-10T01:55:44;6.42;79.17
72772;SHT30;60894;42.544;1.516;2023-05-10T01:58:15;6.48;79.18
72772;SHT30;60894;42.544;1.516;2023-05-10T02:00:45;6.49;79.16
72772;SHT30;60894;42.544;1.516;2023-05-10T02:03:15;6.38;79.28
72772;SHT30;60894;42.544;1.516;2023-05-10T02:05:43;6.49;79.54
72772;SHT30;60894;42.544;1.516;2023-05-10T02:08:11;6.49;79.27
72772;SHT30;60894;42.544;1.516;2023-05-10T02:10:39;6.46;79.50
72772;SHT30;60894;42.544;1.516;2023-05-10T02:13:07;6.41;79.53
72772;SHT30;60894;42.544;1.516;2023-05-10T02:15:36;6.37;79.61
72772;SHT30;60894;42.544;1.516;2023-05-10T02:18:04;6.20;79.70
72772;SHT30;60894;42.544;1.516;2023-05-10T02:20:34;6.31;79.85
72772;SHT30;60894;42.544;1.516;2023-05-10T02:23:02;6.29;79.70
72772;SHT30;60894;42.544;1.516;2023-05-10T02:25:31;6.21;79.56
72772;SHT30;60894;42.544;1.516;2023-05-10T02:28:02;6.31;79.20
72772;SHT30;60894;42.544;1.516;2023-05-10T02:30:31;6.22;79.10
72772;SHT30;60894;42.544;1.516;2023-05-10T02:32:59;6.31;79.25
72772;SHT30;60894;42.544;1.516;2023-05-10T02:35:28;6.20;79.53
72772;SHT30;60894;42.544;1.516;2023-05-10T02:37:58;6.11;79.44
72772;SHT30;60894;42.544;1.516;2023-05-10T02:40:26;6.14;79.55
72772;SHT30;60894;42.544;1.516;2023-05-10T02:42:56;6.11;79.69
72772;SHT30;60894;42.544;1.516;2023-05-10T02:45:27;6.07;79.52
72772;SHT30;60894;42.544;1.516;2023-05-10T02:47:56;5.98;79.69
72772;SHT30;60894;42.544;1.516;2023-05-10T02:50:26;6.01;79.56
72772;SHT30;60894;42.544;1.516;2023-05-10T02:52:59;5.89;80.08
72772;SHT30;60894;42.544;1.516;2023-05-10T02:55:32;5.80;80.26
72772;SHT30;60894;42.544;1.516;2023-05-10T02:58:00;5.83;80.18
72772;SHT30;60894;42.544;1.516;2023-05-10T03:00:28;5.77;80.29
72772;SHT30;60894;42.544;1.516;2023-05-10T03:02:55;5.78;79.62
72772;SHT30;60894;42.544;1.516;2023-05-10T03:05:22;5.73;79.95
72772;SHT30;60894;42.544;1.516;2023-05-10T03:07:49;5.77;79.65
72772;SHT30;60894;42.544;1.516;2023-05-10T03:10:18;5.76;79.59
72772;SHT30;60894;42.544;1.516;2023-05-10T03:12:55;5.78;79.44
72772;SHT30;60894;42.544;1.516;2023-05-10T03:15:31;5.76;79.53
72772;SHT30;60894;42.544;1.516;2023-05-10T03:18:05;5.70;79.17
72772;SHT30;60894;42.544;1.516;2023-05-10T03:20:36;5.73;78.36
72772;SHT30;60894;42.544;1.516;2023-05-10T03:23:13;5.55;78.90
72772;SHT30;60894;42.544;1.516;2023-05-10T03:25:49;5.63;79.36
72772;SHT30;60894;42.544;1.516;2023-05-10T03:28:17;5.76;79.18
72772;SHT30;60894;42.544;1.516;2023-05-10T03:30:45;5.69;78.70
72772;SHT30;60894;42.544;1.516;2023-05-10T03:33:12;5.63;77.53
72772;SHT30;60894;42.544;1.516;2023-05-10T03:35:39;5.49;77.89
72772;SHT30;60894;42.544;1.516;2023-05-10T03:38:06;5.43;77.80
72772;SHT30;60894;42.544;1.516;2023-05-10T03:40:33;5.39;77.47
72772;SHT30;60894;42.544;1.516;2023-05-10T03:43:02;5.40;77.65
72772;SHT30;60894;42.544;1.516;2023-05-10T03:45:28;5.40;78.13
72772;SHT30;60894;42.544;1.516;2023-05-10T03:47:57;5.40;78.02
72772;SHT30;60894;42.544;1.516;2023-05-10T03:50:24;5.38;78.01
72772;SHT30;60894;42.544;1.516;2023-05-10T03:52:51;5.18;78.12
72772;SHT30;60894;42.544;1.516;2023-05-10T03:55:18;5.22;78.77
72772;SHT30;60894;42.544;1.516;2023-05-10T03:57:45;5.22;78.29
72772;SHT30;60894;42.544;1.516;2023-05-10T04:00:16;5.31;78.35
72772;SHT30;60894;42.544;1.516;2023-05-10T04:02:43;5.31;77.83
72772;SHT30;60894;42.544;1.516;2023-05-10T04:05:11;5.21;78.71
72772;SHT30;60894;42.544;1.516;2023-05-10T04:07:37;5.19;78.88
72772;SHT30;60894;42.544;1.516;2023-05-10T04:10:05;5.22;78.48
72772;SHT30;60894;42.544;1.516;2023-05-10T04:12:32;5.28;78.32
72772;SHT30;60894;42.544;1.516;2023-05-10T04:14:59;5.18;78.19
72772;SHT30;60894;42.544;1.516;2023-05-10T04:17:27;5.08;78.52
72772;SHT30;60894;42.544;1.516;2023-05-10T04:19:55;5.11;78.08
72772;SHT30;60894;42.544;1.516;2023-05-10T04:22:22;5.02;78.12
72772;SHT30;60894;42.544;1.516;2023-05-10T04:24:49;5.02;78.27
72772;SHT30;60894;42.544;1.516;2023-05-10T04:27:16;5.01;78.20
72772;SHT30;60894;42.544;1.516;2023-05-10T04:29:43;4.92;77.93
72772;SHT30;60894;42.544;1.516;2023-05-10T04:32:10;4.89;77.49
72772;SHT30;60894;42.544;1.516;2023-05-10T04:34:38;4.87;77.93
72772;SHT30;60894;42.544;1.516;2023-05-10T04:37:05;4.98;77.77
72772;SHT30;60894;42.544;1.516;2023-05-10T04:39:32;4.98;76.93
72772;SHT30;60894;42.544;1.516;2023-05-10T04:42:00;4.92;77.07
72772;SHT30;60894;42.544;1.516;2023-05-10T04:44:28;4.88;77.32
72772;SHT30;60894;42.544;1.516;2023-05-10T04:46:55;4.84;77.50
72772;SHT30;60894;42.544;1.516;2023-05-10T04:49:22;4.92;76.85
72772;SHT30;60894;42.544;1.516;2023-05-10T04:51:50;4.77;77.15
72772;SHT30;60894;42.544;1.516;2023-05-10T04:54:17;4.75;77.69
72772;SHT30;60894;42.544;1.516;2023-05-10T04:56:44;4.64;77.83
72772;SHT30;60894;42.544;1.516;2023-05-10T04:59:11;4.63;78.21
72772;SHT30;60894;42.544;1.516;2023-05-10T05:01:38;4.70;78.11
72772;SHT30;60894;42.544;1.516;2023-05-10T05:04:05;4.73;77.23
72772;SHT30;60894;42.544;1.516;2023-05-10T05:06:33;4.84;76.35
72772;SHT30;60894;42.544;1.516;2023-05-10T05:09:01;4.71;77.71
72772;SHT30;60894;42.544;1.516;2023-05-10T05:11:28;4.65;77.97
72772;SHT30;60894;42.544;1.516;2023-05-10T05:13:55;4.52;77.27
72772;SHT30;60894;42.544;1.516;2023-05-10T05:16:24;4.67;77.00
72772;SHT30;60894;42.544;1.516;2023-05-10T05:18:51;4.57;77.70
72772;SHT30;60894;42.544;1.516;2023-05-10T05:21:19;4.54;77.97
72772;SHT30;60894;42.544;1.516;2023-05-10T05:23:46;4.68;77.42
72772;SHT30;60894;42.544;1.516;2023-05-10T05:26:15;4.64;77.44
72772;SHT30;60894;42.544;1.516;2023-05-10T05:28:42;4.65;78.01
72772;SHT30;60894;42.544;1.516;2023-05-10T05:31:09;4.49;78.08
72772;SHT30;60894;42.544;1.516;2023-05-10T05:33:36;4.65;77.42
72772;SHT30;60894;42.544;1.516;2023-05-10T05:36:04;4.65;76.86
72772;SHT30;60894;42.544;1.516;2023-05-10T05:38:32;4.63;77.29
72772;SHT30;60894;42.544;1.516;2023-05-10T05:40:58;4.58;76.84
72772;SHT30;60894;42.544;1.516;2023-05-10T05:43:27;4.73;76.87
72772;SHT30;60894;42.544;1.516;2023-05-10T05:45:54;4.74;77.14
72772;SHT30;60894;42.544;1.516;2023-05-10T05:48:23;4.64;76.77
72772;SHT30;60894;42.544;1.516;2023-05-10T05:50:50;4.84;76.87
72772;SHT30;60894;42.544;1.516;2023-05-10T05:53:20;5.11;78.60
72772;SHT30;60894;42.544;1.516;2023-05-10T05:55:53;5.62;81.97
72772;SHT30;60894;42.544;1.516;2023-05-10T05:58:21;5.87;79.13
72772;SHT30;60894;42.544;1.516;2023-05-10T06:00:49;6.50;79.53
72772;SHT30;60894;42.544;1.516;2023-05-10T06:03:17;6.24;71.83
72772;SHT30;60894;42.544;1.516;2023-05-10T06:05:44;6.10;71.28
72772;SHT30;60894;42.544;1.516;2023-05-10T06:08:11;5.80;72.07
72772;SHT30;60894;42.544;1.516;2023-05-10T06:10:38;5.77;72.37
72772;SHT30;60894;42.544;1.516;2023-05-10T06:13:04;5.59;72.46
72772;SHT30;60894;42.544;1.516;2023-05-10T06:15:31;5.60;72.06
72772;SHT30;60894;42.544;1.516;2023-05-10T06:18:00;5.60;73.29
72772;SHT30;60894;42.544;1.516;2023-05-10T06:20:27;5.65;73.43
72772;SHT30;60894;42.544;1.516;2023-05-10T06:22:54;5.67;71.16
72772;SHT30;60894;42.544;1.516;2023-05-10T06:25:21;5.73;72.84
72772;SHT30;60894;42.544;1.516;2023-05-10T06:27:48;5.78;73.11
72772;SHT30;60894;42.544;1.516;2023-05-10T06:30:15;5.81;73.05
72772;SHT30;60894;42.544;1.516;2023-05-10T06:32:42;5.81;72.59
72772;SHT30;60894;42.544;1.516;2023-05-10T06:35:12;6.04;72.23
72772;SHT30;60894;42.544;1.516;2023-05-10T06:37:39;6.13;71.60
72772;SHT30;60894;42.544;1.516;2023-05-10T06:40:06;6.22;69.51
72772;SHT30;60894;42.544;1.516;2023-05-10T06:42:34;6.38;69.99
72772;SHT30;60894;42.544;1.516;2023-05-10T06:45:01;6.44;69.28
72772;SHT30;60894;42.544;1.516;2023-05-10T06:47:28;6.58;68.72
72772;SHT30;60894;42.544;1.516;2023-05-10T06:49:55;6.68;68.42
72772;SHT30;60894;42.544;1.516;2023-05-10T06:52:24;6.82;69.40
72772;SHT30;60894;42.544;1.516;2023-05-10T06:54:50;6.90;70.03
72772;SHT30;60894;42.544;1.516;2023-05-10T06:57:17;7.03;68.90
72772;SHT30;60894;42.544;1.516;2023-05-10T06:59:45;7.11;68.38
72772;SHT30;60894;42.544;1.516;2023-05-10T07:02:11;7.23;66.83
72772;SHT30;60894;42.544;1.516;2023-05-10T07:04:40;7.48;62.20
72772;SHT30;60894;42.544;1.516;2023-05-10T07:07:07;7.72;60.89
72772;SHT30;60894;42.544;1.516;2023-05-10T07:09:35;7.86;66.13
72772;SHT30;60894;42.544;1.516;2023-05-10T07:12:02;8.03;60.97
72772;SHT30;60894;42.544;1.516;2023-05-10T07:14:29;8.23;58.96
72772;SHT30;60894;42.544;1.516;2023-05-10T07:16:56;8.46;52.46
72772;SHT30;60894;42.544;1.516;2023-05-10T07:19:23;8.63;51.90
72772;SHT30;60894;42.544;1.516;2023-05-10T07:21:50;8.89;49.14
72772;SHT30;60894;42.544;1.516;2023-05-10T07:24:17;9.05;54.09
72772;SHT30;60894;42.544;1.516;2023-05-10T07:26:45;9.22;52.00
72772;SHT30;60894;42.544;1.516;2023-05-10T07:29:12;9.39;49.43
72772;SHT30;60894;42.544;1.516;2023-05-10T07:31:39;9.46;48.51
72772;SHT30;60894;42.544;1.516;2023-05-10T07:34:07;9.50;48.44
72772;SHT30;60894;42.544;1.516;2023-05-10T07:36:34;9.50;48.10
72772;SHT30;60894;42.544;1.516;2023-05-10T07:39:01;9.60;47.95
72772;SHT30;60894;42.544;1.516;2023-05-10T07:41:28;9.77;48.38
72772;SHT30;60894;42.544;1.516;2023-05-10T07:43:56;9.77;45.93
72772;SHT30;60894;42.544;1.516;2023-05-10T07:46:23;9.86;46.05
72772;SHT30;60894;42.544;1.516;2023-05-10T07:48:50;9.94;45.34
72772;SHT30;60894;42.544;1.516;2023-05-10T07:51:17;9.94;45.76
72772;SHT30;60894;42.544;1.516;2023-05-10T07:53:44;10.01;45.85
72772;SHT30;60894;42.544;1.516;2023-05-10T07:56:22;10.07;45.05
72772;SHT30;60894;42.544;1.516;2023-05-10T07:58:50;10.08;43.76
72772;SHT30;60894;42.544;1.516;2023-05-10T08:01:19;10.15;44.63
72772;SHT30;60894;42.544;1.516;2023-05-10T08:03:46;10.32;44.45
72772;SHT30;60894;42.544;1.516;2023-05-10T08:06:14;10.40;43.93
72772;SHT30;60894;42.544;1.516;2023-05-10T08:08:41;10.41;41.79
72772;SHT30;60894;42.544;1.516;2023-05-10T08:11:08;10.34;41.85
72772;SHT30;60894;42.544;1.516;2023-05-10T08:13:35;10.45;43.94
72772;SHT30;60894;42.544;1.516;2023-05-10T08:16:02;10.48;42.62
72772;SHT30;60894;42.544;1.516;2023-05-10T08:18:30;10.59;40.94
72772;SHT30;60894;42.544;1.516;2023-05-10T08:20:57;10.61;41.77
72772;SHT30;60894;42.544;1.516;2023-05-10T08:23:24;10.83;43.08
72772;SHT30;60894;42.544;1.516;2023-05-10T08:25:51;10.92;42.22
72772;SHT30;60894;42.544;1.516;2023-05-10T08:28:18;11.02;41.66
72772;SHT30;60894;42.544;1.516;2023-05-10T08:30:45;11.26;42.70
72772;SHT30;60894;42.544;1.516;2023-05-10T08:33:12;11.38;41.31
72772;SHT30;60894;42.544;1.516;2023-05-10T08:35:40;11.45;40.33
72772;SHT30;60894;42.544;1.516;2023-05-10T08:38:07;11.60;41.36
72772;SHT30;60894;42.544;1.516;2023-05-10T08:40:34;11.68;39.82
72772;SHT30;60894;42.544;1.516;2023-05-10T08:43:05;11.53;39.82
72772;SHT30;60894;42.544;1.516;2023-05-10T08:45:39;11.43;39.39
72772;SHT30;60894;42.544;1.516;2023-05-10T08:48:07;11.63;41.14
72772;SHT30;60894;42.544;1.516;2023-05-10T08:50:35;11.71;39.93
72772;SHT30;60894;42.544;1.516;2023-05-10T08:53:06;11.61;39.58
72772;SHT30;60894;42.544;1.516;2023-05-10T08:55:34;11.40;39.55
72772;SHT30;60894;42.544;1.516;2023-05-10T08:58:04;11.51;39.18
72772;SHT30;60894;42.544;1.516;2023-05-10T09:00:31;11.30;37.69
72772;SHT30;60894;42.544;1.516;2023-05-10T09:02:58;11.40;38.08
72772;SHT30;60894;42.544;1.516;2023-05-10T09:05:25;11.64;38.91
72772;SHT30;60894;42.544;1.516;2023-05-10T09:07:52;11.58;37.00
72772;SHT30;60894;42.544;1.516;2023-05-10T09:10:21;11.75;35.79
72772;SHT30;60894;42.544;1.516;2023-05-10T09:12:48;11.50;35.02
72772;SHT30;60894;42.544;1.516;2023-05-10T09:15:15;11.55;36.79
72772;SHT30;60894;42.544;1.516;2023-05-10T09:17:45;11.81;36.60
72772;SHT30;60894;42.544;1.516;2023-05-10T09:20:12;11.94;36.49
72772;SHT30;60894;42.544;1.516;2023-05-10T09:22:39;12.12;37.37
72772;SHT30;60894;42.544;1.516;2023-05-10T09:25:08;12.36;37.11
72772;SHT30;60894;42.544;1.516;2023-05-10T09:27:38;12.50;36.28
72772;SHT30;60894;42.544;1.516;2023-05-10T09:30:07;12.36;35.33
72772;SHT30;60894;42.544;1.516;2023-05-10T09:32:38;12.46;34.43
72772;SHT30;60894;42.544;1.516;2023-05-10T09:35:09;12.59;34.85
72772;SHT30;60894;42.544;1.516;2023-05-10T09:37:36;12.52;35.20
72772;SHT30;60894;42.544;1.516;2023-05-10T09:40:07;12.67;34.75
72772;SHT30;60894;42.544;1.516;2023-05-10T09:42:35;12.97;35.31
72772;SHT30;60894;42.544;1.516;2023-05-10T09:45:05;13.22;34.57
72772;SHT30;60894;42.544;1.516;2023-05-10T09:47:34;13.22;34.10
72772;SHT30;60894;42.544;1.516;2023-05-10T09:50:01;12.95;33.16
72772;SHT30;60894;42.544;1.516;2023-05-10T09:52:30;13.17;34.34
72772;SHT30;60894;42.544;1.516;2023-05-10T09:54:57;13.52;34.29
72772;SHT30;60894;42.544;1.516;2023-05-10T09:57:24;13.58;34.26
72772;SHT30;60894;42.544;1.516;2023-05-10T09:59:52;13.76;34.36
72772;SHT30;60894;42.544;1.516;2023-05-10T10:02:28;14.07;33.87
72772;SHT30;60894;42.544;1.516;2023-05-10T10:04:55;14.09;33.74
72772;SHT30;60894;42.544;1.516;2023-05-10T10:07:23;14.23;35.33
72772;SHT30;60894;42.544;1.516;2023-05-10T10:09:51;14.34;33.76
72772;SHT30;60894;42.544;1.516;2023-05-10T10:12:19;14.52;33.45
72772;SHT30;60894;42.544;1.516;2023-05-10T10:14:47;14.40;33.39
72772;SHT30;60894;42.544;1.516;2023-05-10T10:17:16;14.34;33.94
72772;SHT30;60894;42.544;1.516;2023-05-10T10:19:45;14.21;33.16
72772;SHT30;60894;42.544;1.516;2023-05-10T10:22:12;14.26;33.32
72772;SHT30;60894;42.544;1.516;2023-05-10T10:24:39;14.42;33.21
72772;SHT30;60894;42.544;1.516;2023-05-10T10:27:19;14.48;33.00
72772;SHT30;60894;42.544;1.516;2023-05-10T10:29:55;14.93;33.50
72772;SHT30;60894;42.544;1.516;2023-05-10T10:32:30;15.20;34.59
72772;SHT30;60894;42.544;1.516;2023-05-10T10:35:01;15.64;34.75
72772;SHT30;60894;42.544;1.516;2023-05-10T10:37:43;15.91;34.37
72772;SHT30;60894;42.544;1.516;2023-05-10T10:40:23;15.94;32.36
72772;SHT30;60894;42.544;1.516;2023-05-10T10:42:51;15.83;32.43
72772;SHT30;60894;42.544;1.516;2023-05-10T10:45:20;15.94;32.62
72772;SHT30;60894;42.544;1.516;2023-05-10T10:47:47;15.78;32.39
72772;SHT30;60894;42.544;1.516;2023-05-10T10:50:16;15.50;32.41
72772;SHT30;60894;42.544;1.516;2023-05-10T10:52:44;15.64;33.49
72772;SHT30;60894;42.544;1.516;2023-05-10T10:55:13;15.80;32.84
72772;SHT30;60894;42.544;1.516;2023-05-10T10:57:44;15.81;32.62
72772;SHT30;60894;42.544;1.516;2023-05-10T11:00:28;15.77;32.06
72772;SHT30;60894;42.544;1.516;2023-05-10T11:02:58;15.93;32.69
72772;SHT30;60894;42.544;1.516;2023-05-10T11:05:37;15.88;31.81
72772;SHT30;60894;42.544;1.516;2023-05-10T11:08:12;16.24;32.73
72772;SHT30;60894;42.544;1.516;2023-05-10T11:10:48;16.48;32.09
72772;SHT30;60894;42.544;1.516;2023-05-10T11:13:27;16.69;32.51
72772;SHT30;60894;42.544;1.516;2023-05-10T11:15:54;16.90;31.15
72772;SHT30;60894;42.544;1.516;2023-05-10T11:18:25;16.66;31.80
72772;SHT30;60894;42.544;1.516;2023-05-10T11:20:57;16.49;31.56
72772;SHT30;60894;42.544;1.516;2023-05-10T11:23:29;16.86;31.53
72772;SHT30;60894;42.544;1.516;2023-05-10T11:25:56;16.53;30.80
72772;SHT30;60894;42.544;1.516;2023-05-10T11:28:23;16.69;32.46
72772;SHT30;60894;42.544;1.516;2023-05-10T11:30:51;16.97;30.97
72772;SHT30;60894;42.544;1.516;2023-05-10T11:33:18;17.24;32.36
72772;SHT30;60894;42.544;1.516;2023-05-10T11:35:46;17.51;30.77
72772;SHT30;60894;42.544;1.516;2023-05-10T11:38:14;17.42;30.63
72772;SHT30;60894;42.544;1.516;2023-05-10T11:40:41;17.52;30.60
72772;SHT30;60894;42.544;1.516;2023-05-10T11:43:09;17.65;30.08
72772;SHT30;60894;42.544;1.516;2023-05-10T11:45:37;17.81;29.30
72772;SHT30;60894;42.544;1.516;2023-05-10T11:48:05;17.96;29.65
72772;SHT30;60894;42.544;1.516;2023-05-10T11:50:32;18.12;29.02
72772;SHT30;60894;42.544;1.516;2023-05-10T11:52:59;18.12;29.12
72772;SHT30;60894;42.544;1.516;2023-05-10T11:55:27;18.28;29.34
72772;SHT30;60894;42.544;1.516;2023-05-10T11:58:00;18.56;28.78
72772;SHT30;60894;42.544;1.516;2023-05-10T12:00:27;18.61;28.15
72772;SHT30;60894;42.544;1.516;2023-05-10T12:02:54;18.78;27.78
72772;SHT30;60894;42.544;1.516;2023-05-10T12:05:21;18.92;28.38
72772;SHT30;60894;42.544;1.516;2023-05-10T12:07:48;18.67;27.45
72772;SHT30;60894;42.544;1.516;2023-05-10T12:10:15;18.70;26.92
72772;SHT30;60894;42.544;1.516;2023-05-10T12:12:45;19.35;26.81
72772;SHT30;60894;42.544;1.516;2023-05-10T12:15:17;19.59;26.39
72772;SHT30;60894;42.544;1.516;2023-05-10T12:17:45;19.83;27.34
72772;SHT30;60894;42.544;1.516;2023-05-10T12:20:16;19.12;26.01
72772;SHT30;60894;42.544;1.516;2023-05-10T12:22:49;19.38;26.31
72772;SHT30;60894;42.544;1.516;2023-05-10T12:25:16;19.89;25.78
72772;SHT30;60894;42.544;1.516;2023-05-10T12:27:53;19.59;24.70
72772;SHT30;60894;42.544;1.516;2023-05-10T12:30:21;19.82;24.76
72772;SHT30;60894;42.544;1.516;2023-05-10T12:32:48;20.04;25.81
72772;SHT30;60894;42.544;1.516;2023-05-10T12:35:15;19.98;24.95
72772;SHT30;60894;42.544;1.516;2023-05-10T12:37:42;20.24;24.51
72772;SHT30;60894;42.544;1.516;2023-05-10T12:40:10;19.76;25.68
72772;SHT30;60894;42.544;1.516;2023-05-10T12:42:38;20.16;25.98
72772;SHT30;60894;42.544;1.516;2023-05-10T12:45:08;20.20;25.83
72772;SHT30;60894;42.544;1.516;2023-05-10T12:47:35;20.10;25.95
72772;SHT30;60894;42.544;1.516;2023-05-10T12:50:03;20.13;26.17
72772;SHT30;60894;42.544;1.516;2023-05-10T12:52:31;20.47;26.02
72772;SHT30;60894;42.544;1.516;2023-05-10T12:54:58;20.79;25.71
72772;SHT30;60894;42.544;1.516;2023-05-10T12:57:25;20.49;25.35
72772;SHT30;60894;42.544;1.516;2023-05-10T12:59:54;20.75;24.82
72772;SHT30;60894;42.544;1.516;2023-05-10T13:02:22;20.96;25.24
72772;SHT30;60894;42.544;1.516;2023-05-10T13:04:49;21.03;24.81
72772;SHT30;60894;42.544;1.516;2023-05-10T13:07:16;20.98;24.36
72772;SHT30;60894;42.544;1.516;2023-05-10T13:09:43;21.18;24.41
72772;SHT30;60894;42.544;1.516;2023-05-10T13:12:10;21.14;24.29
72772;SHT30;60894;42.544;1.516;2023-05-10T13:14:37;21.02;24.60
72772;SHT30;60894;42.544;1.516;2023-05-10T13:17:06;20.56;24.75
72772;SHT30;60894;42.544;1.516;2023-05-10T13:19:34;20.72;25.25
72772;SHT30;60894;42.544;1.516;2023-05-10T13:22:02;20.76;24.54
72772;SHT30;60894;42.544;1.516;2023-05-10T13:24:29;21.00;24.78
72772;SHT30;60894;42.544;1.516;2023-05-10T13:26:56;20.73;24.81
72772;SHT30;60894;42.544;1.516;2023-05-10T13:29:23;20.99;25.48
72772;SHT30;60894;42.544;1.516;2023-05-10T13:31:50;21.49;24.92
72772;SHT30;60894;42.544;1.516;2023-05-10T13:34:17;20.65;24.55
72772;SHT30;60894;42.544;1.516;2023-05-10T13:36:47;20.86;24.88
72772;SHT30;60894;42.544;1.516;2023-05-10T13:39:14;20.79;25.41
72772;SHT30;60894;42.544;1.516;2023-05-10T13:41:41;20.98;25.35
72772;SHT30;60894;42.544;1.516;2023-05-10T13:44:08;20.73;24.99
72772;SHT30;60894;42.544;1.516;2023-05-10T13:46:36;20.88;24.93
72772;SHT30;60894;42.544;1.516;2023-05-10T13:49:03;20.79;25.42
72772;SHT30;60894;42.544;1.516;2023-05-10T13:51:30;20.27;25.81
72772;SHT30;60894;42.544;1.516;2023-05-10T13:53:59;20.68;25.61
72772;SHT30;60894;42.544;1.516;2023-05-10T13:56:26;20.65;25.30
72772;SHT30;60894;42.544;1.516;2023-05-10T13:58:56;20.65;25.63
72772;SHT30;60894;42.544;1.516;2023-05-10T14:01:23;20.73;25.90
72772;SHT30;60894;42.544;1.516;2023-05-10T14:03:50;20.92;26.77
72772;SHT30;60894;42.544;1.516;2023-05-10T14:06:17;20.93;26.06
72772;SHT30;60894;42.544;1.516;2023-05-10T14:08:44;21.32;24.73
72772;SHT30;60894;42.544;1.516;2023-05-10T14:11:12;21.36;25.04
72772;SHT30;60894;42.544;1.516;2023-05-10T14:13:39;21.74;24.84
72772;SHT30;60894;42.544;1.516;2023-05-10T14:16:06;21.88;24.76
72772;SHT30;60894;42.544;1.516;2023-05-10T14:18:33;21.64;24.69
72772;SHT30;60894;42.544;1.516;2023-05-10T14:21:02;21.92;25.14
72772;SHT30;60894;42.544;1.516;2023-05-10T14:23:29;21.61;24.07
72772;SHT30;60894;42.544;1.516;2023-05-10T14:25:56;21.51;24.73
72772;SHT30;60894;42.544;1.516;2023-05-10T14:28:24;21.54;25.46
72772;SHT30;60894;42.544;1.516;2023-05-10T14:30:51;21.75;26.22
72772;SHT30;60894;42.544;1.516;2023-05-10T14:33:18;21.94;24.92
72772;SHT30;60894;42.544;1.516;2023-05-10T14:35:46;21.75;23.82
72772;SHT30;60894;42.544;1.516;2023-05-10T14:38:13;22.11;24.51
72772;SHT30;60894;42.544;1.516;2023-05-10T14:40:40;22.33;24.61
72772;SHT30;60894;42.544;1.516;2023-05-10T14:43:07;21.41;24.19
72772;SHT30;60894;42.544;1.516;2023-05-10T14:45:35;21.65;25.07
72772;SHT30;60894;42.544;1.516;2023-05-10T14:48:02;21.57;24.50
72772;SHT30;60894;42.544;1.516;2023-05-10T14:50:30;21.46;24.59
72772;SHT30;60894;42.544;1.516;2023-05-10T14:52:57;21.18;24.81
72772;SHT30;60894;42.544;1.516;2023-05-10T14:55:24;20.67;24.88
72772;SHT30;60894;42.544;1.516;2023-05-10T14:57:51;20.86;24.94
72772;SHT30;60894;42.544;1.516;2023-05-10T15:00:19;21.19;25.01
72772;SHT30;60894;42.544;1.516;2023-05-10T15:02:47;21.02;25.19
72772;SHT30;60894;42.544;1.516;2023-05-10T15:05:14;21.12;24.79
72772;SHT30;60894;42.544;1.516;2023-05-10T15:07:41;21.34;24.84
72772;SHT30;60894;42.544;1.516;2023-05-10T15:10:09;21.55;24.72
72772;SHT30;60894;42.544;1.516;2023-05-10T15:12:36;21.49;25.02
72772;SHT30;60894;42.544;1.516;2023-05-10T15:15:04;21.23;24.70
72772;SHT30;60894;42.544;1.516;2023-05-10T15:17:31;21.27;24.77
72772;SHT30;60894;42.544;1.516;2023-05-10T15:20:00;21.29;25.07
72772;SHT30;60894;42.544;1.516;2023-05-10T15:22:28;21.13;25.35
72772;SHT30;60894;42.544;1.516;2023-05-10T15:24:57;20.99;26.15
72772;SHT30;60894;42.544;1.516;2023-05-10T15:27:23;21.43;26.04
72772;SHT30;60894;42.544;1.516;2023-05-10T15:29:50;20.72;26.18
72772;SHT30;60894;42.544;1.516;2023-05-10T15:32:17;20.91;25.40
72772;SHT30;60894;42.544;1.516;2023-05-10T15:34:44;20.56;25.93
72772;SHT30;60894;42.544;1.516;2023-05-10T15:37:13;20.30;26.87
72772;SHT30;60894;42.544;1.516;2023-05-10T15:39:39;20.40;27.02
72772;SHT30;60894;42.544;1.516;2023-05-10T15:42:06;20.40;26.77
72772;SHT30;60894;42.544;1.516;2023-05-10T15:44:33;20.41;27.47
72772;SHT30;60894;42.544;1.516;2023-05-10T15:47:03;20.75;27.27
72772;SHT30;60894;42.544;1.516;2023-05-10T15:49:30;20.81;26.45